createdAt,value
2022-10-04T00:01:09.035Z,100603.71
2022-10-04T00:03:43.871Z,100603.35
2022-10-04T00:06:19.480Z,100604.41
2022-10-04T00:08:51.830Z,100601.93
2022-10-04T00:11:26.065Z,100602.98
2022-10-04T00:13:57.475Z,100606.11
2022-10-04T00:16:30.503Z,100602.96
2022-10-04T00:19:25.375Z,100600.15
2022-10-04T00:22:17.460Z,100598.89
2022-10-04T00:25:21.073Z,100606.27
2022-10-04T00:28:41.149Z,100599.77
2022-10-04T00:31:18.242Z,100598.71
2022-10-04T00:33:47.520Z,100596.44
2022-10-04T00:37:01.497Z,100594.52
2022-10-04T00:39:43.192Z,100599.59
2022-10-04T00:42:41.479Z,100601.89
2022-10-04T00:45:18.909Z,100603.30
2022-10-04T00:48:20.618Z,100600.84
2022-10-04T00:50:53.867Z,100600.00
2022-10-04T00:53:41.222Z,100593.88
2022-10-04T00:56:13.475Z,100597.04
2022-10-04T00:58:50.569Z,100591.29
2022-10-04T01:01:23.492Z,100589.22
2022-10-04T01:03:53.680Z,100592.59
2022-10-04T01:06:22.408Z,100592.11
2022-10-04T01:08:52.505Z,100590.39
2022-10-04T01:11:24.641Z,100586.76
2022-10-04T01:13:56.705Z,100586.44
2022-10-04T01:16:27.559Z,100584.71
2022-10-04T01:18:55.705Z,100587.89
2022-10-04T01:21:27.870Z,100591.59
2022-10-04T01:24:21.134Z,100591.08
2022-10-04T01:26:48.915Z,100591.60
2022-10-04T01:29:18.528Z,100591.11
2022-10-04T01:31:48.576Z,100591.45
2022-10-04T01:34:18.413Z,100590.95
2022-10-04T01:36:48.084Z,100588.31
2022-10-04T01:39:17.669Z,100591.11
2022-10-04T01:41:51.337Z,100593.73
2022-10-04T01:44:27.231Z,100594.79
2022-10-04T01:46:59.556Z,100593.39
2022-10-04T01:49:30.734Z,100595.30
2022-10-04T01:52:04.641Z,100597.05
2022-10-04T01:54:36.304Z,100590.41
2022-10-04T01:57:13.818Z,100592.33
2022-10-04T01:59:48.919Z,100590.57
2022-10-04T02:02:25.276Z,100594.26
2022-10-04T02:04:56.278Z,100590.58
2022-10-04T02:07:28.720Z,100595.34
2022-10-04T02:09:59.228Z,100595.70
2022-10-04T02:12:30.763Z,100598.18
2022-10-04T02:15:01.588Z,100601.34
2022-10-04T02:17:31.821Z,100596.98
2022-10-04T02:20:02.248Z,100599.41
2022-10-04T02:22:30.638Z,100597.82
2022-10-04T02:24:58.980Z,100596.95
2022-10-04T02:27:30.550Z,100595.55
2022-10-04T02:30:03.280Z,100595.01
2022-10-04T02:32:51.035Z,100590.30
2022-10-04T02:35:20.343Z,100593.83
2022-10-04T02:37:54.112Z,100597.73
2022-10-04T02:40:29.622Z,100599.85
2022-10-04T02:43:02.760Z,100594.65
2022-10-04T02:45:40.509Z,100597.29
2022-10-04T02:48:22.045Z,100594.49
2022-10-04T02:50:52.967Z,100597.67
2022-10-04T02:53:26.339Z,100591.75
2022-10-04T02:55:55.589Z,100593.35
2022-10-04T02:58:25.849Z,100597.23
2022-10-04T03:00:57.573Z,100595.82
2022-10-04T03:03:27.883Z,100597.40
2022-10-04T03:06:01.838Z,100596.20
2022-10-04T03:08:32.597Z,100594.29
2022-10-04T03:11:02.371Z,100592.56
2022-10-04T03:13:31.695Z,100589.77
2022-10-04T03:15:59.513Z,100595.03
2022-10-04T03:18:28.348Z,100591.55
2022-10-04T03:20:56.420Z,100592.98
2022-10-04T03:23:24.347Z,100597.20
2022-10-04T03:25:56.824Z,100591.27
2022-10-04T03:28:24.495Z,100592.52
2022-10-04T03:30:52.282Z,100590.64
2022-10-04T03:33:25.907Z,100591.52
2022-10-04T03:35:59.871Z,100591.38
2022-10-04T03:38:28.983Z,100589.30
2022-10-04T03:41:00.027Z,100593.33
2022-10-04T03:43:30.841Z,100595.98
2022-10-04T03:46:00.240Z,100593.03
2022-10-04T03:48:33.124Z,100599.88
2022-10-04T03:51:02.318Z,100598.65
2022-10-04T03:53:35.925Z,100599.90
2022-10-04T03:56:12.082Z,100594.66
2022-10-04T03:58:40.194Z,100595.20
2022-10-04T04:01:33.955Z,100597.29
2022-10-04T04:04:06.841Z,100601.69
2022-10-04T04:06:42.576Z,100597.50
2022-10-04T04:09:19.874Z,100601.00
2022-10-04T04:11:50.719Z,100603.80
2022-10-04T04:14:24.208Z,100605.55
2022-10-04T04:16:53.957Z,100606.08
2022-10-04T04:19:25.045Z,100600.83
2022-10-04T04:21:55.247Z,100601.71
2022-10-04T04:24:27.868Z,100606.27
2022-10-04T04:26:59.603Z,100600.86
2022-10-04T04:29:33.427Z,100600.54
2022-10-04T04:32:05.382Z,100604.05
2022-10-04T04:34:44.800Z,100607.05
2022-10-04T04:37:12.370Z,100611.95
2022-10-04T04:39:40.533Z,100608.48
2022-10-04T04:42:14.974Z,100610.58
2022-10-04T04:44:48.929Z,100612.16
2022-10-04T04:47:27.080Z,100619.54
2022-10-04T04:49:57.194Z,100618.34
2022-10-04T04:52:27.489Z,100614.49
2022-10-04T04:54:56.319Z,100614.86
2022-10-04T04:57:24.792Z,100619.94
2022-10-04T04:59:56.930Z,100623.98
2022-10-04T05:02:36.593Z,100624.52
2022-10-04T05:05:23.430Z,100631.84
2022-10-04T05:08:09.220Z,100637.27
2022-10-04T05:10:38.799Z,100634.66
2022-10-04T05:13:09.608Z,100635.88
2022-10-04T05:15:39.464Z,100635.51
2022-10-04T05:18:22.711Z,100634.27
2022-10-04T05:20:53.576Z,100637.93
2022-10-04T05:23:21.371Z,100641.60
2022-10-04T05:25:49.592Z,100646.99
2022-10-04T05:28:18.068Z,100652.05
2022-10-04T05:31:09.776Z,100651.36
2022-10-04T05:33:44.703Z,100661.99
2022-10-04T05:36:39.478Z,100666.17
2022-10-04T05:39:13.667Z,100668.60
2022-10-04T05:41:51.291Z,100672.42
2022-10-04T05:44:25.469Z,100673.44
2022-10-04T05:46:54.422Z,100673.42
2022-10-04T05:49:24.904Z,100676.72
2022-10-04T05:51:55.738Z,100678.42
2022-10-04T05:54:26.123Z,100685.90
2022-10-04T05:57:20.402Z,100691.27
2022-10-04T06:00:06.047Z,100689.13
2022-10-04T06:02:54.202Z,100692.23
2022-10-04T06:05:29.209Z,100693.41
2022-10-04T06:08:04.815Z,100695.81
2022-10-04T06:10:48.597Z,100696.11
2022-10-04T06:13:36.132Z,100699.78
2022-10-04T06:16:11.637Z,100702.69
2022-10-04T06:18:58.902Z,100702.48
2022-10-04T06:21:29.195Z,100702.73
2022-10-04T06:24:02.305Z,100708.75
2022-10-04T06:26:37.768Z,100701.50
2022-10-04T06:29:11.536Z,100701.26
2022-10-04T06:31:57.364Z,100702.58
2022-10-04T06:34:54.397Z,100706.89
2022-10-04T06:37:38.518Z,100708.73
2022-10-04T06:40:28.047Z,100709.70
2022-10-04T06:43:14.360Z,100715.92
2022-10-04T06:46:01.120Z,100716.67
2022-10-04T06:49:03.326Z,100721.96
2022-10-04T06:51:51.337Z,100726.38
2022-10-04T06:54:37.573Z,100729.80
2022-10-04T06:57:34.811Z,100731.27
2022-10-04T07:00:13.083Z,100731.08
2022-10-04T07:02:46.437Z,100738.84
2022-10-04T07:05:29.627Z,100745.88
2022-10-04T07:08:06.437Z,100749.36
2022-10-04T07:10:40.341Z,100755.30
2022-10-04T07:13:21.888Z,100757.21
2022-10-04T07:15:57.776Z,100755.90
2022-10-04T07:18:29.603Z,100755.91
2022-10-04T07:21:06.568Z,100756.20
2022-10-04T07:23:36.808Z,100755.24
2022-10-04T07:26:08.131Z,100758.54
2022-10-04T07:29:01.540Z,100759.83
2022-10-04T07:31:34.067Z,100757.48
2022-10-04T07:34:09.047Z,100759.07
2022-10-04T07:36:45.896Z,100763.04
2022-10-04T07:39:16.831Z,100764.66
2022-10-04T07:41:52.384Z,100758.91
2022-10-04T07:44:31.899Z,100756.41
2022-10-04T07:47:03.475Z,100758.63
2022-10-04T07:49:38.995Z,100754.59
2022-10-04T07:52:21.242Z,100756.45
2022-10-04T07:54:57.720Z,100756.63
2022-10-04T07:57:33.335Z,100761.13
2022-10-04T08:00:11.759Z,100764.72
2022-10-04T08:02:52.390Z,100764.86
2022-10-04T08:05:24.468Z,100761.29
2022-10-04T08:08:07.860Z,100761.73
2022-10-04T08:10:44.175Z,100762.08
2022-10-04T08:13:25.919Z,100763.04
2022-10-04T08:16:01.153Z,100767.67
2022-10-04T08:18:43.334Z,100772.13
2022-10-04T08:21:17.315Z,100776.69
2022-10-04T08:24:00.935Z,100777.91
2022-10-04T08:26:52.813Z,100778.69
2022-10-04T08:29:42.269Z,100784.88
2022-10-04T08:32:22.890Z,100788.77
2022-10-04T08:35:15.648Z,100787.55
2022-10-04T08:38:00.943Z,100790.60
2022-10-04T08:41:17.759Z,100789.13
2022-10-04T08:44:18.428Z,100791.36
2022-10-04T08:47:21.743Z,100789.09
2022-10-04T08:50:25.201Z,100787.84
2022-10-04T08:53:29.402Z,100787.84
2022-10-04T08:56:09.519Z,100789.21
2022-10-04T08:58:52.300Z,100790.52
2022-10-04T09:01:45.072Z,100786.94
2022-10-04T09:04:44.076Z,100792.14
2022-10-04T09:07:38.795Z,100792.81
2022-10-04T09:10:32.986Z,100795.54
2022-10-04T09:13:21.586Z,100797.89
2022-10-04T09:15:53.193Z,100801.30
2022-10-04T09:18:30.987Z,100804.44
2022-10-04T09:21:10.028Z,100809.91
2022-10-04T09:24:03.921Z,100809.89
2022-10-04T09:26:40.722Z,100813.48
2022-10-04T09:29:35.201Z,100805.45
2022-10-04T09:32:36.979Z,100809.65
2022-10-04T09:35:32.751Z,100808.58
2022-10-04T09:39:11.507Z,100811.02
2022-10-04T09:41:59.633Z,100820.45
2022-10-04T09:44:47.970Z,100823.02
2022-10-04T09:47:37.306Z,100825.61
2022-10-04T09:50:29.372Z,100828.17
2022-10-04T09:53:08.287Z,100826.98
2022-10-04T09:55:54.671Z,100823.23
2022-10-04T09:58:52.641Z,100820.20
2022-10-04T10:01:25.438Z,100821.95
2022-10-04T10:04:19.111Z,100819.05
2022-10-04T10:07:14.333Z,100820.73
2022-10-04T10:10:09.633Z,100826.88
2022-10-04T10:13:31.785Z,100830.40
2022-10-04T10:16:06.640Z,100830.38
2022-10-04T10:18:49.945Z,100826.21
2022-10-04T10:21:31.904Z,100824.63
2022-10-04T10:24:19.101Z,100827.97
2022-10-04T10:27:06.960Z,100831.41
2022-10-04T10:30:03.503Z,100833.69
2022-10-04T10:32:50.499Z,100840.24
2022-10-04T10:35:45.343Z,100841.27
2022-10-04T10:38:34.904Z,100842.64
2022-10-04T10:41:39.039Z,100838.96
2022-10-04T10:44:40.845Z,100836.22
2022-10-04T10:47:28.891Z,100843.58
2022-10-04T10:50:16.388Z,100840.75
2022-10-04T10:53:30.579Z,100838.81
2022-10-04T10:56:33.673Z,100835.36
2022-10-04T10:59:37.286Z,100845.23
2022-10-04T11:02:48.239Z,100846.91
2022-10-04T11:05:49.226Z,100848.92
2022-10-04T11:08:36.617Z,100842.33
2022-10-04T11:11:14.247Z,100843.87
2022-10-04T11:14:12.207Z,100841.48
2022-10-04T11:17:03.331Z,100846.88
2022-10-04T11:20:06.378Z,100847.11
2022-10-04T11:23:24.330Z,100847.20
2022-10-04T11:26:30.194Z,100846.61
2022-10-04T11:29:09.453Z,100843.61
2022-10-04T11:32:02.258Z,100845.47
2022-10-04T11:35:12.004Z,100856.92
2022-10-04T11:38:00.368Z,100854.52
2022-10-04T11:40:44.339Z,100851.90
2022-10-04T11:43:33.097Z,100862.69
2022-10-04T11:46:17.680Z,100861.46
2022-10-04T11:49:03.290Z,100860.30
2022-10-04T11:51:56.559Z,100865.15
2022-10-04T11:54:57.855Z,100862.14
2022-10-04T11:57:33.410Z,100861.45
2022-10-04T12:00:16.494Z,100863.35
2022-10-04T12:03:22.604Z,100863.39
2022-10-04T12:06:17.639Z,100866.08
2022-10-04T12:08:56.406Z,100862.46
2022-10-04T12:12:03.800Z,100863.99
2022-10-04T12:14:42.333Z,100864.01
2022-10-04T12:17:43.724Z,100859.11
2022-10-04T12:20:31.671Z,100865.41
2022-10-04T12:23:16.712Z,100869.27
2022-10-04T12:26:09.824Z,100860.11
2022-10-04T12:29:03.894Z,100857.70
2022-10-04T12:31:35.432Z,100852.86
2022-10-04T12:34:15.355Z,100851.55
2022-10-04T12:37:03.617Z,100848.86
2022-10-04T12:40:02.983Z,100857.02
2022-10-04T12:42:42.852Z,100852.48
2022-10-04T12:45:47.538Z,100855.89
2022-10-04T12:48:32.755Z,100851.87
2022-10-04T12:51:20.546Z,100846.47
2022-10-04T12:53:56.630Z,100842.98
2022-10-04T12:56:39.986Z,100844.79
2022-10-04T12:59:21.354Z,100842.41
2022-10-04T13:02:03.199Z,100839.81
2022-10-04T13:04:39.284Z,100843.58
2022-10-04T13:07:27.970Z,100840.55
2022-10-04T13:10:24.113Z,100841.77
2022-10-04T13:13:35.503Z,100846.19
2022-10-04T13:19:09.997Z,100841.89
2022-10-04T13:22:13.522Z,100850.98
2022-10-04T13:24:55.678Z,100850.52
2022-10-04T13:27:45.047Z,100851.86
2022-10-04T13:30:23.515Z,100851.65
2022-10-04T13:33:01.385Z,100852.45
2022-10-04T13:35:36.904Z,100854.27
2022-10-04T13:38:35.322Z,100854.94
2022-10-04T13:41:17.632Z,100855.42
2022-10-04T13:44:01.330Z,100857.73
2022-10-04T13:46:38.571Z,100860.64
2022-10-04T13:49:27.108Z,100861.95
2022-10-04T13:52:38.888Z,100859.81
2022-10-04T13:55:39.922Z,100857.96
2022-10-04T13:58:25.641Z,100861.52
2022-10-04T14:01:18.728Z,100862.73
2022-10-04T14:03:58.095Z,100864.56
2022-10-04T14:07:05.796Z,100863.36
2022-10-04T14:09:55.500Z,100860.13
2022-10-04T14:12:48.187Z,100864.58
2022-10-04T14:15:38.800Z,100862.08
2022-10-04T14:18:47.509Z,100863.39
2022-10-04T14:21:45.325Z,100868.16
2022-10-04T14:24:51.911Z,100869.55
2022-10-04T14:27:42.785Z,100875.68
2022-10-04T14:30:35.019Z,100877.94
2022-10-04T14:33:30.154Z,100877.58
2022-10-04T14:36:26.011Z,100881.77
2022-10-04T14:39:23.654Z,100888.31
2022-10-04T14:42:23.703Z,100884.89
2022-10-04T14:45:13.494Z,100888.69
2022-10-04T14:48:18.721Z,100881.11
2022-10-04T14:51:02.599Z,100881.98
2022-10-04T14:53:36.771Z,100885.75
2022-10-04T14:56:34.724Z,100883.75
2022-10-04T14:59:22.761Z,100881.69
2022-10-04T15:02:18.729Z,100888.01
2022-10-04T15:05:09.375Z,100886.97
2022-10-04T15:07:42.350Z,100889.77
2022-10-04T15:10:18.417Z,100891.90
2022-10-04T15:13:16.073Z,100892.34
2022-10-04T15:16:01.059Z,100897.08
2022-10-04T15:18:38.671Z,100895.95
2022-10-04T15:21:22.756Z,100896.93
2022-10-04T15:23:54.887Z,100897.52
2022-10-04T15:26:49.262Z,100897.17
2022-10-04T15:29:25.872Z,100901.92
2022-10-04T15:32:05.807Z,100897.20
2022-10-04T15:34:45.005Z,100898.64
2022-10-04T15:37:24.846Z,100898.44
2022-10-04T15:40:15.889Z,100901.29
2022-10-04T15:43:07.864Z,100899.69
2022-10-04T15:46:03.545Z,100904.75
2022-10-04T15:48:57.062Z,100906.98
2022-10-04T15:51:44.370Z,100909.17
2022-10-04T15:54:15.240Z,100910.11
2022-10-04T15:56:51.749Z,100911.52
2022-10-04T15:59:46.511Z,100913.84
2022-10-04T16:02:48.008Z,100910.94
2022-10-04T16:05:22.902Z,100910.00
2022-10-04T16:08:04.745Z,100919.76
2022-10-04T16:10:52.507Z,100914.03
2022-10-04T16:13:40.128Z,100916.23
2022-10-04T16:16:40.561Z,100916.66
2022-10-04T16:19:34.273Z,100920.08
2022-10-04T16:22:17.545Z,100920.45
2022-10-04T16:24:50.724Z,100924.85
2022-10-04T16:27:42.556Z,100923.73
2022-10-04T16:30:27.207Z,100926.21
2022-10-04T16:33:25.358Z,100925.14
2022-10-04T16:36:08.042Z,100924.80
2022-10-04T16:39:06.166Z,100927.29
2022-10-04T16:41:39.990Z,100928.70
2022-10-04T16:44:28.146Z,100928.84
2022-10-04T16:46:59.929Z,100930.23
2022-10-04T16:49:40.892Z,100932.14
2022-10-04T16:52:31.582Z,100932.53
2022-10-04T16:55:23.949Z,100932.56
2022-10-04T16:58:28.091Z,100934.70
2022-10-04T17:01:42.719Z,100930.38
2022-10-04T17:04:28.708Z,100930.77
2022-10-04T17:06:58.700Z,100933.37
2022-10-04T17:09:31.113Z,100935.63
2022-10-04T17:12:13.005Z,100933.13
2022-10-04T17:15:07.256Z,100936.81
2022-10-04T17:17:45.389Z,100935.59
2022-10-04T17:20:25.461Z,100938.89
2022-10-04T17:23:05.939Z,100938.68
2022-10-04T17:25:42.451Z,100941.98
2022-10-04T17:28:25.553Z,100940.75
2022-10-04T17:31:01.133Z,100941.08
2022-10-04T17:33:42.896Z,100935.39
2022-10-04T17:36:37.901Z,100942.33
2022-10-04T17:39:39.053Z,100944.38
2022-10-04T17:42:15.871Z,100944.84
2022-10-04T17:44:59.834Z,100943.86
2022-10-04T17:47:50.884Z,100944.15
2022-10-04T17:50:43.951Z,100940.73
2022-10-04T17:53:37.618Z,100943.09
2022-10-04T17:56:08.668Z,100948.61
2022-10-04T17:58:44.296Z,100951.15
2022-10-04T18:01:18.730Z,100956.86
2022-10-04T18:03:51.890Z,100956.08
2022-10-04T18:06:31.969Z,100952.81
2022-10-04T18:09:03.192Z,100952.33
2022-10-04T18:11:43.060Z,100959.92
2022-10-04T18:14:20.884Z,100967.87
2022-10-04T18:16:52.938Z,100967.56
2022-10-04T18:19:35.956Z,100969.19
2022-10-04T18:22:11.996Z,100974.67
2022-10-04T18:24:39.784Z,100973.84
2022-10-04T18:27:18.371Z,100980.38
2022-10-04T18:29:59.610Z,100981.30
2022-10-04T18:32:36.131Z,100981.87
2022-10-04T18:35:22.205Z,100991.73
2022-10-04T18:37:51.434Z,100988.63
2022-10-04T18:40:22.273Z,100993.89
2022-10-04T18:42:56.490Z,100994.11
2022-10-04T18:45:28.193Z,101003.59
2022-10-04T18:47:58.674Z,101002.75
2022-10-04T18:50:34.622Z,101001.73
2022-10-04T18:53:17.336Z,101004.04
2022-10-04T18:55:56.930Z,101008.27
2022-10-04T18:59:11.036Z,101008.84
2022-10-04T19:02:00.484Z,101004.14
2022-10-04T19:04:45.125Z,101005.20
2022-10-04T19:07:15.971Z,101004.70
2022-10-04T19:10:11.047Z,101014.17
2022-10-04T19:12:50.774Z,101018.20
2022-10-04T19:15:33.657Z,101018.22
2022-10-04T19:18:17.920Z,101020.35
2022-10-04T19:20:51.603Z,101018.11
2022-10-04T19:23:28.559Z,101021.29
2022-10-04T19:26:30.568Z,101018.31
2022-10-04T19:29:03.199Z,101017.80
2022-10-04T19:31:40.560Z,101013.08
2022-10-04T19:34:14.292Z,101009.95
2022-10-04T19:36:50.857Z,101009.42
2022-10-04T19:39:41.914Z,101008.73
2022-10-04T19:42:14.492Z,101015.05
2022-10-04T19:45:11.484Z,101014.02
2022-10-04T19:47:48.217Z,101014.91
2022-10-04T19:50:23.100Z,101013.70
2022-10-04T19:52:53.556Z,101010.20
2022-10-04T19:55:31.559Z,101013.00
2022-10-04T19:58:07.624Z,101013.36
2022-10-04T20:00:36.951Z,101016.50
2022-10-04T20:03:11.404Z,101019.48
2022-10-04T20:05:44.731Z,101025.60
2022-10-04T20:08:13.871Z,101025.77
2022-10-04T20:10:43.139Z,101024.39
2022-10-04T20:13:24.327Z,101024.40
2022-10-04T20:15:53.936Z,101026.13
2022-10-04T20:18:59.830Z,101025.45
2022-10-04T20:21:31.397Z,101028.77
2022-10-04T20:24:00.900Z,101037.34
2022-10-04T20:26:53.749Z,101037.17
2022-10-04T20:30:10.069Z,101034.36
2022-10-04T20:33:01.870Z,101033.48
2022-10-04T20:36:10.449Z,101033.48
2022-10-04T20:38:46.574Z,101025.98
2022-10-04T20:42:04.919Z,101024.23
2022-10-04T20:44:43.851Z,101026.67
2022-10-04T20:47:21.866Z,101023.88
2022-10-04T20:49:49.717Z,101026.32
2022-10-04T20:52:18.782Z,101028.59
2022-10-04T20:54:52.428Z,101023.35
2022-10-04T20:57:23.132Z,101027.70
2022-10-04T20:59:53.884Z,101032.60
2022-10-04T21:02:23.245Z,101022.13
2022-10-04T21:04:53.004Z,101016.88
2022-10-04T21:07:23.427Z,101023.16
2022-10-04T21:09:52.894Z,101028.58
2022-10-04T21:12:30.913Z,101032.23
2022-10-04T21:15:20.182Z,101038.00
2022-10-04T21:18:02.010Z,101039.05
2022-10-04T21:20:46.728Z,101037.29
2022-10-04T21:23:22.721Z,101037.45
2022-10-04T21:25:50.361Z,101033.25
2022-10-04T21:28:33.174Z,101037.79
2022-10-04T21:31:02.556Z,101038.15
2022-10-04T21:33:32.921Z,101045.81
2022-10-04T21:36:00.499Z,101054.66
2022-10-04T21:38:28.533Z,101057.56
2022-10-04T21:40:56.284Z,101062.10
2022-10-04T21:43:25.057Z,101065.06
2022-10-04T21:45:52.795Z,101068.19
2022-10-04T21:48:22.540Z,101069.23
2022-10-04T21:50:52.011Z,101075.52
2022-10-04T21:53:20.011Z,101071.16
2022-10-04T21:55:47.569Z,101069.75
2022-10-04T21:58:15.089Z,101073.94
2022-10-04T22:00:42.693Z,101080.23
2022-10-04T22:03:10.252Z,101080.23
2022-10-04T22:05:37.746Z,101081.25
2022-10-04T22:08:05.430Z,101084.36
2022-10-04T22:10:33.210Z,101089.77
2022-10-04T22:13:00.728Z,101090.45
2022-10-04T22:15:28.751Z,101095.34
2022-10-04T22:17:56.421Z,101092.55
2022-10-04T22:20:25.504Z,101087.66
2022-10-04T22:22:54.936Z,101087.64
2022-10-04T22:25:25.047Z,101086.58
2022-10-04T22:27:53.286Z,101080.96
2022-10-04T22:30:24.492Z,101087.26
2022-10-04T22:32:55.264Z,101088.80
2022-10-04T22:35:23.099Z,101085.81
2022-10-04T22:37:50.910Z,101088.23
2022-10-04T22:40:20.533Z,101082.30
2022-10-04T22:42:51.764Z,101080.55
2022-10-04T22:45:22.635Z,101073.76
2022-10-04T22:47:51.187Z,101069.23
2022-10-04T22:50:26.972Z,101069.58
2022-10-04T22:52:57.237Z,101073.02
2022-10-04T22:55:25.414Z,101060.98
2022-10-04T22:57:53.017Z,101053.47
2022-10-04T23:00:20.509Z,101057.83
2022-10-04T23:02:48.583Z,101059.70
2022-10-04T23:05:19.084Z,101049.92
2022-10-04T23:07:48.157Z,101046.60
2022-10-04T23:10:19.202Z,101046.06
2022-10-04T23:12:48.379Z,101034.73
2022-10-04T23:15:18.947Z,101031.95
2022-10-04T23:17:53.186Z,101024.98
2022-10-04T23:20:21.555Z,101018.70
2022-10-04T23:22:50.906Z,101014.36
2022-10-04T23:25:20.095Z,101020.11
2022-10-04T23:27:48.291Z,101017.15
2022-10-04T23:30:18.911Z,101011.41
2022-10-04T23:32:49.830Z,101011.40
2022-10-04T23:35:19.963Z,101005.30
2022-10-04T23:37:48.246Z,101001.81
2022-10-04T23:40:18.352Z,100993.61
2022-10-04T23:42:48.026Z,101000.93
2022-10-04T23:45:19.730Z,100993.16
2022-10-04T23:47:49.323Z,100988.55
2022-10-04T23:50:22.523Z,100984.20
2022-10-04T23:52:54.693Z,100974.46
2022-10-04T23:55:24.112Z,100970.14
2022-10-04T23:57:51.768Z,100968.79
